createdAt,value
2022-12-18T00:01:17.653Z,-4.55
2022-12-18T00:03:45.338Z,-4.49
2022-12-18T00:06:13.019Z,-4.42
2022-12-18T00:08:39.619Z,-4.54
2022-12-18T00:11:14.453Z,-4.62
2022-12-18T00:13:41.427Z,-4.45
2022-12-18T00:16:15.638Z,-4.53
2022-12-18T00:18:43.315Z,-4.65
2022-12-18T00:21:11.909Z,-4.44
2022-12-18T00:23:39.803Z,-4.41
2022-12-18T00:26:21.555Z,-4.34
2022-12-18T00:28:48.898Z,-4.24
2022-12-18T00:31:18.178Z,-4.29
2022-12-18T00:33:45.391Z,-4.38
2022-12-18T00:36:15.376Z,-4.31
2022-12-18T00:38:43.781Z,-4.30
2022-12-18T00:41:12.392Z,-4.34
2022-12-18T00:43:40.024Z,-4.24
2022-12-18T00:46:07.594Z,-4.22
2022-12-18T00:48:34.160Z,-4.34
2022-12-18T00:51:00.740Z,-4.23
2022-12-18T00:53:27.232Z,-4.24
2022-12-18T00:55:53.739Z,-4.21
2022-12-18T00:58:20.224Z,-4.18
2022-12-18T01:00:46.890Z,-4.15
2022-12-18T01:03:14.972Z,-4.12
2022-12-18T01:05:42.920Z,-4.13
2022-12-18T01:08:09.650Z,-4.11
2022-12-18T01:10:36.217Z,-4.07
2022-12-18T01:13:03.100Z,-4.06
2022-12-18T01:15:29.755Z,-4.11
2022-12-18T01:17:56.301Z,-4.10
2022-12-18T01:20:22.758Z,-4.01
2022-12-18T01:22:49.327Z,-4.01
2022-12-18T01:25:16.109Z,-4.10
2022-12-18T01:27:42.678Z,-4.13
2022-12-18T01:30:09.617Z,-4.13
2022-12-18T01:32:36.168Z,-4.22
2022-12-18T01:35:03.116Z,-4.15
2022-12-18T01:37:29.698Z,-4.12
2022-12-18T01:39:56.613Z,-4.08
2022-12-18T01:42:23.097Z,-4.25
2022-12-18T01:45:03.209Z,-4.29
2022-12-18T01:47:46.489Z,-4.33
2022-12-18T01:50:17.469Z,-4.32
2022-12-18T01:52:47.694Z,-4.47
2022-12-18T01:55:17.862Z,-4.42
2022-12-18T01:57:44.653Z,-4.47
2022-12-18T02:00:15.890Z,-4.42
2022-12-18T02:02:44.940Z,-4.47
2022-12-18T02:05:13.787Z,-4.54
2022-12-18T02:07:55.313Z,-4.73
2022-12-18T02:10:33.644Z,-4.47
2022-12-18T02:13:08.057Z,-4.44
2022-12-18T02:16:04.910Z,-4.41
2022-12-18T02:18:41.616Z,-4.62
2022-12-18T02:21:10.787Z,-4.64
2022-12-18T02:23:52.811Z,-4.54
2022-12-18T02:26:29.993Z,-4.57
2022-12-18T02:29:04.358Z,-4.47
2022-12-18T02:31:35.915Z,-4.44
2022-12-18T02:34:06.281Z,-4.34
2022-12-18T02:36:34.253Z,-4.38
2022-12-18T02:39:02.744Z,-4.42
2022-12-18T02:41:30.341Z,-4.62
2022-12-18T02:43:59.503Z,-4.52
2022-12-18T02:46:34.149Z,-4.58
2022-12-18T02:49:35.634Z,-4.47
2022-12-18T02:52:29.446Z,-4.39
2022-12-18T02:55:16.938Z,-4.66
2022-12-18T02:57:49.702Z,-4.77
2022-12-18T03:00:24.207Z,-4.76
2022-12-18T03:03:40.298Z,-4.74
2022-12-18T03:06:24.771Z,-4.79
2022-12-18T03:08:57.378Z,-5.05
2022-12-18T03:11:48.086Z,-5.02
2022-12-18T03:14:17.700Z,-5.01
2022-12-18T03:16:46.496Z,-4.73
2022-12-18T03:19:17.988Z,-4.54
2022-12-18T03:21:48.422Z,-4.57
2022-12-18T03:24:16.338Z,-4.51
2022-12-18T03:26:47.726Z,-4.62
2022-12-18T03:29:23.759Z,-4.63
2022-12-18T03:32:00.281Z,-4.58
2022-12-18T03:34:32.419Z,-4.80
2022-12-18T03:36:59.654Z,-4.55
2022-12-18T03:39:27.130Z,-4.74
2022-12-18T03:42:24.399Z,-4.54
2022-12-18T03:45:02.834Z,-4.74
2022-12-18T03:47:37.552Z,-4.57
2022-12-18T03:50:13.786Z,-4.44
2022-12-18T03:52:50.001Z,-4.41
2022-12-18T03:55:18.427Z,-4.49
2022-12-18T03:57:46.906Z,-4.67
2022-12-18T04:00:15.822Z,-4.55
2022-12-18T04:02:49.911Z,-4.47
2022-12-18T04:05:18.110Z,-4.66
2022-12-18T04:07:47.938Z,-4.72
2022-12-18T04:10:16.876Z,-4.66
2022-12-18T04:12:43.892Z,-4.94
2022-12-18T04:15:12.135Z,-4.81
2022-12-18T04:17:39.996Z,-4.66
2022-12-18T04:20:07.038Z,-4.60
2022-12-18T04:22:33.501Z,-4.84
2022-12-18T04:25:00.006Z,-4.65
2022-12-18T04:27:26.555Z,-4.63
2022-12-18T04:29:53.155Z,-4.59
2022-12-18T04:32:19.697Z,-4.66
2022-12-18T04:34:46.302Z,-4.66
2022-12-18T04:37:12.859Z,-4.62
2022-12-18T04:39:39.388Z,-4.74
2022-12-18T04:42:06.025Z,-4.63
2022-12-18T04:44:32.546Z,-4.85
2022-12-18T04:46:59.164Z,-4.74
2022-12-18T04:49:25.748Z,-4.78
2022-12-18T04:51:52.720Z,-4.70
2022-12-18T04:54:22.275Z,-4.68
2022-12-18T04:56:49.779Z,-4.87
2022-12-18T04:59:16.230Z,-4.72
2022-12-18T05:01:42.882Z,-4.64
2022-12-18T05:04:09.702Z,-4.76
2022-12-18T05:06:36.403Z,-4.71
2022-12-18T05:09:03.073Z,-4.78
2022-12-18T05:11:29.551Z,-4.90
2022-12-18T05:13:59.119Z,-4.95
2022-12-18T05:16:25.723Z,-4.93
2022-12-18T05:18:52.330Z,-5.04
2022-12-18T05:21:18.822Z,-5.06
2022-12-18T05:23:45.324Z,-5.22
2022-12-18T05:26:16.911Z,-5.05
2022-12-18T05:28:43.701Z,-4.97
2022-12-18T05:31:10.764Z,-4.97
2022-12-18T05:33:37.659Z,-4.96
2022-12-18T05:36:07.753Z,-5.00
2022-12-18T05:38:36.328Z,-5.30
2022-12-18T05:41:03.582Z,-5.12
2022-12-18T05:43:30.228Z,-5.10
2022-12-18T05:45:57.899Z,-5.10
2022-12-18T05:48:24.571Z,-4.97
2022-12-18T05:50:51.929Z,-4.94
2022-12-18T05:53:20.714Z,-4.86
2022-12-18T05:55:47.820Z,-4.90
2022-12-18T05:58:15.382Z,-4.84
2022-12-18T06:00:47.045Z,-4.93
2022-12-18T06:03:14.588Z,-5.05
2022-12-18T06:05:44.250Z,-5.05
2022-12-18T06:08:11.643Z,-4.95
2022-12-18T06:10:38.807Z,-4.95
2022-12-18T06:13:06.317Z,-5.09
2022-12-18T06:15:33.135Z,-4.97
2022-12-18T06:18:01.979Z,-5.04
2022-12-18T06:20:33.603Z,-5.27
2022-12-18T06:23:00.685Z,-5.23
2022-12-18T06:25:27.282Z,-5.11
2022-12-18T06:27:53.854Z,-4.99
2022-12-18T06:30:20.494Z,-5.05
2022-12-18T06:32:53.068Z,-4.97
2022-12-18T06:35:22.982Z,-4.96
2022-12-18T06:37:49.520Z,-5.11
2022-12-18T06:40:16.019Z,-5.13
2022-12-18T06:42:42.609Z,-4.99
2022-12-18T06:45:09.773Z,-5.04
2022-12-18T06:47:36.265Z,-5.02
2022-12-18T06:50:03.474Z,-4.98
2022-12-18T06:52:33.147Z,-5.12
2022-12-18T06:54:59.700Z,-5.04
2022-12-18T06:57:26.311Z,-5.00
2022-12-18T06:59:52.895Z,-4.93
2022-12-18T07:02:19.484Z,-4.85
2022-12-18T07:04:46.113Z,-4.86
2022-12-18T07:07:12.613Z,-4.75
2022-12-18T07:09:39.123Z,-4.79
2022-12-18T07:12:06.126Z,-4.75
2022-12-18T07:14:32.606Z,-4.66
2022-12-18T07:16:59.169Z,-4.64
2022-12-18T07:19:26.774Z,-4.79
2022-12-18T07:21:53.255Z,-4.64
2022-12-18T07:24:19.915Z,-4.52
2022-12-18T07:26:47.761Z,-4.53
2022-12-18T07:29:14.347Z,-4.47
2022-12-18T07:31:40.888Z,-4.47
2022-12-18T07:34:11.492Z,-4.48
2022-12-18T07:36:38.372Z,-4.44
2022-12-18T07:39:04.974Z,-4.37
2022-12-18T07:41:31.644Z,-4.35
2022-12-18T07:43:58.214Z,-4.46
2022-12-18T07:46:24.759Z,-4.36
2022-12-18T07:48:51.363Z,-4.32
2022-12-18T07:51:18.900Z,-4.22
2022-12-18T07:53:45.571Z,-4.32
2022-12-18T07:56:30.377Z,-4.44
2022-12-18T07:58:58.086Z,-4.47
2022-12-18T08:01:24.966Z,-4.29
2022-12-18T08:03:52.202Z,-4.31
2022-12-18T08:06:19.176Z,-4.29
2022-12-18T08:08:45.809Z,-4.37
2022-12-18T08:11:12.307Z,-4.14
2022-12-18T08:13:39.137Z,-4.13
2022-12-18T08:16:08.216Z,-4.24
2022-12-18T08:18:37.051Z,-4.15
2022-12-18T08:21:18.301Z,-4.18
2022-12-18T08:23:46.265Z,-4.15
2022-12-18T08:26:13.534Z,-4.03
2022-12-18T08:28:40.887Z,-4.04
2022-12-18T08:31:08.184Z,-3.97
2022-12-18T08:33:35.566Z,-3.90
2022-12-18T08:36:03.095Z,-4.01
2022-12-18T08:38:29.607Z,-4.43
2022-12-18T08:41:04.029Z,-4.64
2022-12-18T08:43:49.326Z,-4.37
2022-12-18T08:46:20.165Z,-4.20
2022-12-18T08:48:47.361Z,-4.46
2022-12-18T08:51:14.483Z,-4.47
2022-12-18T08:53:41.540Z,-4.55
2022-12-18T08:56:08.648Z,-4.47
2022-12-18T08:58:35.179Z,-4.32
2022-12-18T09:01:07.062Z,-4.38
2022-12-18T09:03:34.105Z,-4.13
2022-12-18T09:06:00.659Z,-3.96
2022-12-18T09:08:27.959Z,-3.76
2022-12-18T09:10:54.730Z,-3.89
2022-12-18T09:13:21.896Z,-3.80
2022-12-18T09:15:50.785Z,-4.47
2022-12-18T09:18:20.027Z,-3.92
2022-12-18T09:20:47.037Z,-3.96
2022-12-18T09:23:13.709Z,-3.99
2022-12-18T09:25:40.590Z,-3.98
2022-12-18T09:28:11.949Z,-4.04
2022-12-18T09:30:44.152Z,-4.02
2022-12-18T09:33:10.930Z,-3.77
2022-12-18T09:35:42.279Z,-3.59
2022-12-18T09:38:11.157Z,-3.60
2022-12-18T09:40:43.937Z,-3.66
2022-12-18T09:43:38.398Z,-3.89
2022-12-18T09:46:10.099Z,-3.93
2022-12-18T09:48:42.815Z,-3.97
2022-12-18T09:51:20.667Z,-3.62
2022-12-18T09:53:55.013Z,-3.81
2022-12-18T09:56:24.038Z,-4.08
2022-12-18T09:58:59.461Z,-3.93
2022-12-18T10:01:35.468Z,-3.99
2022-12-18T10:04:09.880Z,-4.15
2022-12-18T10:06:53.773Z,-4.00
2022-12-18T10:09:31.074Z,-4.04
2022-12-18T10:12:30.705Z,-3.96
2022-12-18T10:15:28.749Z,-3.99
2022-12-18T10:18:21.886Z,-4.12
2022-12-18T10:21:04.807Z,-3.88
2022-12-18T10:23:46.575Z,-3.82
2022-12-18T10:26:14.758Z,-4.03
2022-12-18T10:28:43.105Z,-3.91
2022-12-18T10:31:19.576Z,-3.70
2022-12-18T10:33:46.190Z,-3.82
2022-12-18T10:36:13.206Z,-3.72
2022-12-18T10:38:40.115Z,-3.33
2022-12-18T10:41:19.131Z,-3.31
2022-12-18T10:43:48.793Z,-3.39
2022-12-18T10:46:20.765Z,-3.32
2022-12-18T10:48:58.666Z,-3.08
2022-12-18T10:51:31.728Z,-3.31
2022-12-18T10:54:24.958Z,-3.11
2022-12-18T10:56:51.446Z,-3.44
2022-12-18T10:59:19.000Z,-3.58
2022-12-18T11:01:52.835Z,-3.55
2022-12-18T11:04:28.936Z,-3.64
2022-12-18T11:07:05.879Z,-3.54
2022-12-18T11:09:38.177Z,-3.40
2022-12-18T11:12:09.347Z,-3.44
2022-12-18T11:14:58.699Z,-3.18
2022-12-18T11:17:36.921Z,-3.06
2022-12-18T11:20:20.361Z,-3.31
2022-12-18T11:22:58.397Z,-3.39
2022-12-18T11:25:34.016Z,-3.34
2022-12-18T11:28:26.023Z,-3.14
2022-12-18T11:31:16.334Z,-2.94
2022-12-18T11:34:26.974Z,-2.78
2022-12-18T11:36:45.249Z,-3.07
2022-12-18T11:39:26.149Z,-2.89
2022-12-18T11:42:21.059Z,-2.84
2022-12-18T11:44:54.876Z,-2.83
2022-12-18T11:47:40.264Z,-2.85
2022-12-18T11:50:33.815Z,-2.81
2022-12-18T11:53:05.620Z,-3.13
2022-12-18T11:56:07.309Z,-3.08
2022-12-18T11:58:42.834Z,-2.75
2022-12-18T12:01:28.361Z,-3.00
2022-12-18T12:03:57.634Z,-3.11
2022-12-18T12:06:44.643Z,-3.32
2022-12-18T12:09:35.064Z,-2.87
2022-12-18T12:12:07.448Z,-2.57
2022-12-18T12:14:56.380Z,-2.62
2022-12-18T12:17:49.202Z,-2.56
2022-12-18T12:20:38.736Z,-2.57
2022-12-18T12:23:11.224Z,-2.88
2022-12-18T12:26:01.730Z,-2.91
2022-12-18T12:29:15.483Z,-2.68
2022-12-18T12:31:55.038Z,-2.70
2022-12-18T12:34:32.440Z,-2.59
2022-12-18T12:37:14.168Z,-2.66
2022-12-18T12:39:43.278Z,-2.59
2022-12-18T12:42:42.035Z,-2.45
2022-12-18T12:45:34.851Z,-2.60
2022-12-18T12:48:03.438Z,-2.70
2022-12-18T12:50:35.186Z,-2.81
2022-12-18T12:53:07.065Z,-2.85
2022-12-18T12:55:33.789Z,-2.94
2022-12-18T12:58:09.479Z,-3.05
2022-12-18T13:00:52.240Z,-2.97
2022-12-18T13:03:32.772Z,-2.96
2022-12-18T13:06:14.201Z,-3.06
2022-12-18T13:09:01.474Z,-2.91
2022-12-18T13:11:59.820Z,-2.82
2022-12-18T13:14:33.883Z,-2.88
2022-12-18T13:17:26.228Z,-2.99
2022-12-18T13:20:05.589Z,-2.87
2022-12-18T13:22:49.989Z,-2.88
2022-12-18T13:25:31.840Z,-3.17
2022-12-18T13:28:10.003Z,-3.03
2022-12-18T13:30:36.472Z,-2.94
2022-12-18T13:33:15.576Z,-3.08
2022-12-18T13:36:02.434Z,-3.34
2022-12-18T13:38:37.070Z,-3.60
2022-12-18T13:41:23.612Z,-3.62
2022-12-18T13:43:52.475Z,-3.55
2022-12-18T13:46:29.413Z,-3.45
2022-12-18T13:49:14.148Z,-3.54
2022-12-18T13:51:52.692Z,-3.24
2022-12-18T13:54:38.631Z,-3.53
2022-12-18T13:57:07.812Z,-3.45
2022-12-18T13:59:35.377Z,-3.52
2022-12-18T14:02:27.404Z,-3.43
2022-12-18T14:04:55.228Z,-3.64
2022-12-18T14:07:27.225Z,-3.72
2022-12-18T14:12:57.737Z,-3.46
2022-12-18T14:15:27.354Z,-3.41
2022-12-18T14:17:56.866Z,-3.63
2022-12-18T14:20:25.155Z,-3.64
2022-12-18T14:22:51.785Z,-3.61
2022-12-18T14:25:23.147Z,-3.58
2022-12-18T14:28:16.242Z,-3.49
2022-12-18T14:30:45.259Z,-3.55
2022-12-18T14:33:19.614Z,-3.34
2022-12-18T14:35:56.305Z,-3.63
2022-12-18T14:38:28.316Z,-3.68
2022-12-18T14:41:00.154Z,-3.96
2022-12-18T14:43:33.217Z,-3.97
2022-12-18T14:46:00.458Z,-4.04
2022-12-18T14:48:40.001Z,-4.01
2022-12-18T14:51:17.770Z,-4.10
2022-12-18T14:53:53.622Z,-4.11
2022-12-18T14:56:25.076Z,-4.09
2022-12-18T14:59:00.367Z,-4.17
2022-12-18T15:01:30.496Z,-4.14
2022-12-18T15:03:58.597Z,-4.10
2022-12-18T15:06:30.253Z,-4.14
2022-12-18T15:08:57.526Z,-4.39
2022-12-18T15:11:33.154Z,-4.28
2022-12-18T15:14:01.216Z,-4.33
2022-12-18T15:16:27.948Z,-4.34
2022-12-18T15:18:54.698Z,-4.35
2022-12-18T15:21:22.337Z,-4.38
2022-12-18T15:23:52.228Z,-4.33
2022-12-18T15:26:22.008Z,-4.34
2022-12-18T15:28:51.198Z,-4.24
2022-12-18T15:31:18.052Z,-4.26
2022-12-18T15:34:00.734Z,-4.31
2022-12-18T15:36:37.441Z,-4.43
2022-12-18T15:39:07.166Z,-4.49
2022-12-18T15:41:37.468Z,-4.43
2022-12-18T15:44:20.735Z,-4.45
2022-12-18T15:46:47.330Z,-4.37
2022-12-18T15:49:13.847Z,-4.41
2022-12-18T15:51:40.578Z,-4.34
2022-12-18T15:54:12.859Z,-4.28
2022-12-18T15:56:57.938Z,-4.34
2022-12-18T15:59:26.647Z,-4.38
2022-12-18T16:01:56.816Z,-4.32
2022-12-18T16:04:24.656Z,-4.30
2022-12-18T16:09:39.760Z,-4.30
2022-12-18T16:12:07.828Z,-4.30
2022-12-18T16:14:34.304Z,-4.29
2022-12-18T16:17:03.666Z,-4.02
2022-12-18T16:19:31.137Z,-4.23
2022-12-18T16:21:58.989Z,-4.21
2022-12-18T16:24:31.104Z,-3.98
2022-12-18T16:27:00.340Z,-3.79
2022-12-18T16:29:28.724Z,-3.90
2022-12-18T16:32:00.634Z,-3.92
2022-12-18T16:34:35.484Z,-3.78
2022-12-18T16:37:08.792Z,-3.77
2022-12-18T16:39:36.398Z,-3.76
2022-12-18T16:42:06.283Z,-3.72
2022-12-18T16:44:34.545Z,-3.55
2022-12-18T16:47:03.277Z,-3.71
2022-12-18T16:49:30.407Z,-3.90
2022-12-18T16:51:56.981Z,-3.92
2022-12-18T16:54:23.531Z,-4.03
2022-12-18T16:56:51.659Z,-4.16
2022-12-18T16:59:18.709Z,-4.43
2022-12-18T17:01:45.332Z,-4.35
2022-12-18T17:04:12.008Z,-4.03
2022-12-18T17:06:44.251Z,-4.04
2022-12-18T17:09:16.371Z,-3.92
2022-12-18T17:11:43.683Z,-4.07
2022-12-18T17:14:13.682Z,-4.05
2022-12-18T17:16:40.285Z,-3.95
2022-12-18T17:19:09.805Z,-4.15
2022-12-18T17:21:40.173Z,-4.19
2022-12-18T17:24:07.834Z,-4.23
2022-12-18T17:26:34.493Z,-4.36
2022-12-18T17:29:01.107Z,-4.27
2022-12-18T17:31:29.770Z,-4.23
2022-12-18T17:33:57.068Z,-4.05
2022-12-18T17:36:24.802Z,-4.20
2022-12-18T17:38:53.231Z,-4.02
2022-12-18T17:41:20.287Z,-3.88
2022-12-18T17:43:58.148Z,-3.95
2022-12-18T17:46:25.975Z,-4.23
2022-12-18T17:48:54.941Z,-4.21
2022-12-18T17:51:21.566Z,-4.19
2022-12-18T17:53:48.315Z,-4.33
2022-12-18T17:56:17.344Z,-4.36
2022-12-18T17:58:44.537Z,-4.31
2022-12-18T18:01:15.166Z,-4.24
2022-12-18T18:03:43.791Z,-4.07
2022-12-18T18:06:11.594Z,-4.23
2022-12-18T18:08:38.123Z,-4.24
2022-12-18T18:11:30.189Z,-4.38
2022-12-18T18:14:02.755Z,-4.48
2022-12-18T18:16:37.739Z,-4.51
2022-12-18T18:19:07.095Z,-4.58
2022-12-18T18:21:37.730Z,-4.41
2022-12-18T18:24:05.866Z,-4.23
2022-12-18T18:26:33.501Z,-4.21
2022-12-18T18:29:01.968Z,-4.39
2022-12-18T18:31:31.394Z,-4.18
2022-12-18T18:33:58.690Z,-4.33
2022-12-18T18:36:25.570Z,-4.25
2022-12-18T18:38:52.701Z,-4.22
2022-12-18T18:41:19.991Z,-4.50
2022-12-18T18:43:46.641Z,-4.35
2022-12-18T18:46:15.482Z,-4.32
2022-12-18T18:48:43.759Z,-4.47
2022-12-18T18:51:20.651Z,-4.22
2022-12-18T18:53:50.417Z,-4.28
2022-12-18T18:59:08.771Z,-4.65
2022-12-18T19:01:35.424Z,-4.85
2022-12-18T19:04:05.290Z,-5.09
2022-12-18T19:06:31.943Z,-4.66
2022-12-18T19:09:02.567Z,-4.80
2022-12-18T19:11:47.402Z,-4.94
2022-12-18T19:14:15.784Z,-4.86
2022-12-18T19:16:43.468Z,-4.93
2022-12-18T19:19:10.906Z,-4.01
2022-12-18T19:21:38.330Z,-4.75
2022-12-18T19:24:05.924Z,-5.01
2022-12-18T19:26:32.632Z,-5.05
2022-12-18T19:29:06.931Z,-5.20
2022-12-18T19:31:36.347Z,-5.46
2022-12-18T19:34:05.371Z,-5.31
2022-12-18T19:36:32.915Z,-5.21
2022-12-18T19:39:01.306Z,-5.23
2022-12-18T19:41:32.839Z,-4.90
2022-12-18T19:43:59.631Z,-4.94
2022-12-18T19:46:26.249Z,-4.88
2022-12-18T19:48:53.701Z,-5.01
2022-12-18T19:51:23.817Z,-5.19
2022-12-18T19:53:56.452Z,-5.27
2022-12-18T19:56:26.903Z,-5.75
2022-12-18T19:58:54.871Z,-5.68
2022-12-18T20:01:23.956Z,-5.58
2022-12-18T20:03:52.547Z,-5.65
2022-12-18T20:06:26.148Z,-5.81
2022-12-18T20:08:59.976Z,-5.97
2022-12-18T20:11:28.314Z,-5.70
2022-12-18T20:13:54.959Z,-5.73
2022-12-18T20:16:21.678Z,-5.70
2022-12-18T20:18:49.230Z,-5.67
2022-12-18T20:21:16.083Z,-5.94
2022-12-18T20:23:43.321Z,-5.98
2022-12-18T20:26:10.648Z,-6.07
2022-12-18T20:28:37.344Z,-6.05
2022-12-18T20:31:10.365Z,-6.07
2022-12-18T20:33:40.416Z,-5.97
2022-12-18T20:36:14.237Z,-5.90
2022-12-18T20:38:42.126Z,-5.87
2022-12-18T20:41:17.344Z,-5.82
2022-12-18T20:43:45.060Z,-5.76
2022-12-18T20:46:14.405Z,-5.76
2022-12-18T20:48:42.206Z,-5.81
2022-12-18T20:51:14.641Z,-5.78
2022-12-18T20:53:42.069Z,-5.70
2022-12-18T20:56:21.290Z,-5.66
2022-12-18T20:58:49.745Z,-5.73
2022-12-18T21:01:18.902Z,-5.78
2022-12-18T21:03:46.586Z,-5.66
2022-12-18T21:06:15.439Z,-5.71
2022-12-18T21:08:42.486Z,-5.50
2022-12-18T21:11:40.875Z,-5.72
2022-12-18T21:14:19.591Z,-5.63
2022-12-18T21:16:47.556Z,-5.64
2022-12-18T21:19:20.630Z,-5.67
2022-12-18T21:21:47.487Z,-5.66
2022-12-18T21:24:14.412Z,-5.76
2022-12-18T21:26:46.090Z,-5.72
2022-12-18T21:29:22.689Z,-5.72
2022-12-18T21:31:50.613Z,-5.67
2022-12-18T21:34:20.412Z,-5.54
2022-12-18T21:36:47.761Z,-5.52
2022-12-18T21:39:16.050Z,-5.42
2022-12-18T21:42:01.593Z,-5.42
2022-12-18T21:44:28.847Z,-5.36
2022-12-18T21:47:00.581Z,-5.28
2022-12-18T21:49:33.444Z,-5.51
2022-12-18T21:52:01.282Z,-5.53
2022-12-18T21:54:29.143Z,-5.43
2022-12-18T21:56:58.373Z,-5.58
2022-12-18T21:59:36.044Z,-5.56
2022-12-18T22:02:11.598Z,-5.58
2022-12-18T22:04:38.228Z,-5.55
2022-12-18T22:07:06.128Z,-5.70
2022-12-18T22:09:32.698Z,-5.63
2022-12-18T22:11:59.608Z,-5.74
2022-12-18T22:14:27.074Z,-5.67
2022-12-18T22:16:55.927Z,-5.64
2022-12-18T22:19:22.419Z,-5.62
2022-12-18T22:21:49.498Z,-5.64
2022-12-18T22:24:18.814Z,-5.67
2022-12-18T22:26:46.438Z,-5.68
2022-12-18T22:29:37.236Z,-5.60
2022-12-18T22:32:05.195Z,-5.58
2022-12-18T22:34:36.478Z,-5.61
2022-12-18T22:37:04.862Z,-5.58
2022-12-18T22:39:31.906Z,-5.56
2022-12-18T22:41:58.954Z,-5.49
2022-12-18T22:44:25.690Z,-5.38
2022-12-18T22:47:05.532Z,-5.34
2022-12-18T22:49:33.941Z,-5.43
2022-12-18T22:52:02.176Z,-5.51
2022-12-18T22:54:28.688Z,-5.31
2022-12-18T22:56:55.643Z,-5.24
2022-12-18T22:59:23.156Z,-5.30
2022-12-18T23:01:52.928Z,-5.18
2022-12-18T23:04:29.069Z,-5.07
2022-12-18T23:07:03.656Z,-5.13
2022-12-18T23:09:30.323Z,-5.22
2022-12-18T23:11:56.843Z,-5.10
2022-12-18T23:14:23.373Z,-5.37
2022-12-18T23:16:49.977Z,-5.36
2022-12-18T23:19:18.896Z,-5.39
2022-12-18T23:21:45.413Z,-5.30
2022-12-18T23:24:12.078Z,-5.28
2022-12-18T23:26:38.974Z,-5.29
2022-12-18T23:29:05.603Z,-5.46
2022-12-18T23:31:34.863Z,-5.51
2022-12-18T23:34:03.006Z,-5.72
2022-12-18T23:36:30.542Z,-5.75
2022-12-18T23:39:01.318Z,-5.70
2022-12-18T23:41:32.697Z,-5.77
2022-12-18T23:44:00.369Z,-5.91
2022-12-18T23:46:29.649Z,-5.87
2022-12-18T23:48:57.840Z,-5.70
2022-12-18T23:51:25.788Z,-5.90
2022-12-18T23:53:53.741Z,-5.78
2022-12-18T23:56:20.268Z,-5.86
2022-12-18T23:58:48.913Z,-5.79
